createdAt,value
2019-05-20T00:00:50.002Z,15.17
2019-05-20T00:03:18.432Z,12.80
2019-05-20T00:05:47.256Z,13.20
2019-05-20T00:08:15.882Z,11.57
2019-05-20T00:10:44.870Z,10.83
2019-05-20T00:13:13.293Z,9.60
2019-05-20T00:15:41.743Z,8.10
2019-05-20T00:18:10.162Z,7.97
2019-05-20T00:20:38.678Z,7.37
2019-05-20T00:23:07.105Z,8.10
2019-05-20T00:25:35.554Z,7.60
2019-05-20T00:28:05.508Z,7.30
2019-05-20T00:30:34.025Z,7.10
2019-05-20T00:33:02.462Z,8.90
2019-05-20T00:35:30.890Z,7.47
2019-05-20T00:37:59.338Z,7.70
2019-05-20T00:40:27.921Z,8.53
2019-05-20T00:42:57.890Z,7.80
2019-05-20T00:45:26.343Z,7.13
2019-05-20T00:47:54.762Z,8.30
2019-05-20T00:50:23.195Z,7.03
2019-05-20T00:52:51.782Z,7.47
2019-05-20T00:55:26.312Z,6.73
2019-05-20T00:57:54.819Z,7.73
2019-05-20T01:00:23.982Z,7.90
2019-05-20T01:02:56.888Z,9.13
2019-05-20T01:05:23.036Z,8.80
2019-05-20T01:07:51.478Z,8.47
2019-05-20T01:10:20.091Z,8.33
2019-05-20T01:12:48.531Z,8.23
2019-05-20T01:15:17.301Z,8.33
2019-05-20T01:17:45.818Z,8.17
2019-05-20T01:20:14.779Z,7.77
2019-05-20T01:22:43.239Z,8.50
2019-05-20T01:25:12.606Z,8.43
2019-05-20T01:27:41.063Z,8.17
2019-05-20T01:30:10.134Z,8.60
2019-05-20T01:32:40.127Z,9.63
2019-05-20T01:35:08.794Z,10.47
2019-05-20T01:37:37.254Z,9.07
2019-05-20T01:40:06.051Z,8.50
2019-05-20T01:42:34.506Z,9.80
2019-05-20T01:45:03.063Z,8.30
2019-05-20T01:47:31.519Z,9.40
2019-05-20T01:49:59.951Z,8.40
2019-05-20T01:52:28.458Z,7.90
2019-05-20T01:54:56.899Z,9.03
2019-05-20T01:57:25.367Z,9.40
2019-05-20T01:59:53.863Z,8.40
2019-05-20T02:02:22.379Z,9.33
2019-05-20T02:04:50.853Z,8.97
2019-05-20T02:07:19.346Z,9.70
2019-05-20T02:09:48.029Z,9.47
2019-05-20T02:12:16.535Z,9.40
2019-05-20T02:14:58.562Z,9.90
2019-05-20T02:17:26.995Z,9.70
2019-05-20T02:19:55.535Z,9.60
2019-05-20T02:22:23.967Z,10.50
2019-05-20T02:24:52.414Z,9.97
2019-05-20T02:27:20.835Z,9.73
2019-05-20T02:29:49.282Z,9.73
2019-05-20T02:32:17.711Z,9.10
2019-05-20T02:34:47.467Z,7.70
2019-05-20T02:37:15.889Z,7.40
2019-05-20T02:39:44.390Z,6.97
2019-05-20T02:42:14.228Z,7.10
2019-05-20T02:44:42.663Z,6.70
2019-05-20T02:47:11.096Z,6.03
2019-05-20T02:49:39.542Z,5.77
2019-05-20T02:52:07.966Z,6.17
2019-05-20T02:54:36.422Z,6.10
2019-05-20T02:57:04.912Z,5.27
2019-05-20T02:59:33.453Z,5.20
2019-05-20T03:02:01.866Z,4.23
2019-05-20T03:04:30.286Z,4.47
2019-05-20T03:07:00.279Z,3.77
2019-05-20T03:09:28.722Z,4.10
2019-05-20T03:11:57.160Z,4.20
2019-05-20T03:14:27.220Z,3.80
2019-05-20T03:16:55.668Z,3.70
2019-05-20T03:19:24.083Z,3.00
2019-05-20T03:21:52.614Z,3.93
2019-05-20T03:24:21.106Z,3.30
2019-05-20T03:26:49.629Z,2.87
2019-05-20T03:29:18.124Z,3.40
2019-05-20T03:31:46.565Z,3.70
2019-05-20T03:34:42.204Z,3.60
2019-05-20T03:36:45.153Z,3.47
2019-05-20T03:39:13.570Z,3.37
2019-05-20T03:41:42.020Z,3.03
2019-05-20T03:44:10.447Z,3.40
2019-05-20T03:46:38.962Z,3.80
2019-05-20T03:49:07.392Z,3.27
2019-05-20T03:51:35.923Z,3.27
2019-05-20T03:54:04.486Z,3.97
2019-05-20T03:56:32.943Z,3.80
2019-05-20T03:59:01.354Z,3.60
2019-05-20T04:01:29.802Z,3.93
2019-05-20T04:03:58.232Z,3.73
2019-05-20T04:06:26.803Z,4.00
2019-05-20T04:08:56.882Z,4.73
2019-05-20T04:11:25.320Z,4.50
2019-05-20T04:13:53.765Z,4.50
2019-05-20T04:16:22.183Z,4.40
2019-05-20T04:18:53.981Z,6.17
2019-05-20T04:21:20.782Z,5.90
2019-05-20T04:23:49.392Z,6.90
2019-05-20T04:26:18.284Z,7.40
2019-05-20T04:28:46.728Z,8.70
2019-05-20T04:31:15.148Z,8.50
2019-05-20T04:33:44.192Z,9.20
2019-05-20T04:36:12.615Z,9.70
2019-05-20T04:38:41.078Z,11.07
2019-05-20T04:41:09.568Z,10.90
2019-05-20T04:43:38.024Z,11.40
2019-05-20T04:46:06.460Z,10.90
2019-05-20T04:48:36.437Z,13.47
2019-05-20T04:51:05.143Z,12.67
2019-05-20T04:53:33.671Z,14.43
2019-05-20T04:56:02.101Z,14.40
2019-05-20T04:58:30.553Z,14.53
2019-05-20T05:00:59.143Z,15.53
2019-05-20T05:03:27.675Z,17.20
2019-05-20T05:05:56.542Z,15.60
2019-05-20T05:08:25.268Z,16.70
2019-05-20T05:10:54.443Z,14.50
2019-05-20T05:13:23.509Z,16.90
2019-05-20T05:15:52.207Z,16.60
2019-05-20T05:18:21.074Z,16.93
2019-05-20T05:20:49.808Z,15.80
2019-05-20T05:23:18.672Z,14.80
2019-05-20T05:25:47.136Z,16.53
2019-05-20T05:28:15.691Z,15.83
2019-05-20T05:30:46.182Z,15.50
2019-05-20T05:33:14.615Z,15.30
2019-05-20T05:35:52.982Z,18.17
2019-05-20T05:38:13.432Z,15.80
2019-05-20T05:40:42.103Z,16.67
2019-05-20T05:43:10.541Z,16.80
2019-05-20T05:45:39.438Z,17.27
2019-05-20T05:48:07.980Z,16.30
2019-05-20T05:50:36.431Z,17.27
2019-05-20T05:53:05.032Z,17.50
2019-05-20T05:55:33.628Z,16.10
2019-05-20T05:58:02.119Z,16.23
2019-05-20T06:00:30.583Z,17.83
2019-05-20T06:02:59.026Z,17.07
2019-05-20T06:05:31.323Z,18.60
2019-05-20T06:07:57.699Z,16.63
2019-05-20T06:10:26.414Z,17.90
2019-05-20T06:12:54.901Z,16.80
2019-05-20T06:15:23.786Z,18.20
2019-05-20T06:17:52.211Z,17.00
2019-05-20T06:20:21.008Z,18.17
2019-05-20T06:22:49.449Z,18.23
2019-05-20T06:25:19.427Z,18.10
2019-05-20T06:27:47.862Z,17.47
2019-05-20T06:30:16.953Z,17.57
2019-05-20T06:32:45.455Z,16.80
2019-05-20T06:35:15.028Z,18.50
2019-05-20T06:37:45.658Z,17.43
2019-05-20T06:40:15.803Z,17.67
2019-05-20T06:42:44.434Z,18.37
2019-05-20T06:45:13.197Z,17.97
2019-05-20T06:47:41.851Z,18.40
2019-05-20T06:50:10.612Z,18.93
2019-05-20T06:52:39.059Z,19.10
2019-05-20T06:55:08.473Z,17.93
2019-05-20T06:57:37.057Z,19.80
2019-05-20T07:00:08.251Z,20.43
2019-05-20T07:02:36.695Z,21.50
2019-05-20T07:05:06.976Z,18.83
2019-05-20T07:07:35.503Z,21.77
2019-05-20T07:10:05.970Z,20.80
2019-05-20T07:12:41.219Z,19.33
2019-05-20T07:15:07.762Z,19.30
2019-05-20T07:17:36.346Z,19.27
2019-05-20T07:20:05.917Z,18.50
2019-05-20T07:22:34.513Z,17.83
2019-05-20T07:25:03.046Z,19.77
2019-05-20T07:27:31.594Z,19.17
2019-05-20T07:30:00.069Z,17.50
2019-05-20T07:32:28.519Z,18.87
2019-05-20T07:34:57.024Z,17.20
2019-05-20T07:37:25.589Z,18.73
2019-05-20T07:39:54.178Z,16.97
2019-05-20T07:42:22.613Z,16.80
2019-05-20T07:44:51.106Z,18.80
2019-05-20T07:47:20.277Z,19.27
2019-05-20T07:49:49.423Z,20.50
2019-05-20T07:52:20.123Z,20.10
2019-05-20T07:54:51.672Z,21.13
2019-05-20T07:57:23.505Z,20.20
2019-05-20T07:59:56.602Z,21.13
2019-05-20T08:02:26.962Z,21.07
2019-05-20T08:04:55.435Z,21.43
2019-05-20T08:07:29.710Z,21.30
2019-05-20T08:09:54.325Z,22.10
2019-05-20T08:12:22.827Z,20.73
2019-05-20T08:14:51.347Z,21.10
2019-05-20T08:17:19.845Z,18.83
2019-05-20T08:19:50.139Z,19.00
2019-05-20T08:22:18.567Z,21.63
2019-05-20T08:24:47.218Z,18.80
2019-05-20T08:27:15.784Z,19.20
2019-05-20T08:29:45.853Z,18.10
2019-05-20T08:32:14.295Z,18.50
2019-05-20T08:34:42.729Z,19.87
2019-05-20T08:37:12.939Z,19.53
2019-05-20T08:39:41.387Z,20.00
2019-05-20T08:42:10.841Z,22.73
2019-05-20T08:44:39.303Z,20.60
2019-05-20T08:47:07.725Z,22.03
2019-05-20T08:49:36.221Z,22.40
2019-05-20T08:52:04.859Z,19.33
2019-05-20T08:54:33.328Z,21.27
2019-05-20T08:57:01.854Z,20.37
2019-05-20T08:59:30.324Z,21.80
2019-05-20T09:01:58.850Z,21.73
2019-05-20T09:04:27.384Z,22.73
2019-05-20T09:06:55.832Z,22.67
2019-05-20T09:09:24.387Z,23.60
2019-05-20T09:11:53.043Z,22.63
2019-05-20T09:14:21.503Z,22.47
2019-05-20T09:16:50.089Z,24.37
2019-05-20T09:19:18.524Z,22.50
2019-05-20T09:21:46.983Z,24.10
2019-05-20T09:24:18.883Z,22.20
2019-05-20T09:26:45.576Z,23.27
2019-05-20T09:29:14.055Z,23.07
2019-05-20T09:31:42.853Z,20.90
2019-05-20T09:34:11.294Z,21.67
2019-05-20T09:36:39.865Z,20.17
2019-05-20T09:39:08.389Z,20.40
2019-05-20T09:41:36.845Z,19.20
2019-05-20T09:44:05.397Z,19.43
2019-05-20T09:46:33.851Z,19.50
2019-05-20T09:49:02.278Z,19.57
2019-05-20T09:51:30.804Z,20.67
2019-05-20T09:53:59.301Z,19.67
2019-05-20T09:56:27.795Z,19.57
2019-05-20T09:58:56.430Z,20.10
2019-05-20T10:01:25.013Z,21.17
2019-05-20T10:03:53.463Z,21.57
2019-05-20T10:06:21.969Z,19.47
2019-05-20T10:08:50.440Z,18.40
2019-05-20T10:11:19.104Z,19.83
2019-05-20T10:13:47.689Z,17.63
2019-05-20T10:16:16.174Z,19.27
2019-05-20T10:18:44.671Z,19.13
2019-05-20T10:21:13.095Z,19.40
2019-05-20T10:23:41.549Z,18.80
2019-05-20T10:26:09.966Z,18.83
2019-05-20T10:28:41.894Z,20.80
2019-05-20T10:31:08.632Z,19.10
2019-05-20T10:33:37.308Z,17.27
2019-05-20T10:36:05.873Z,19.10
2019-05-20T10:38:34.355Z,18.83
2019-05-20T10:41:02.848Z,19.07
2019-05-20T10:43:31.288Z,16.47
2019-05-20T10:45:59.772Z,21.57
2019-05-20T10:48:28.313Z,19.10
2019-05-20T10:50:56.764Z,18.10
2019-05-20T10:53:28.254Z,17.50
2019-05-20T10:55:55.495Z,18.37
2019-05-20T10:58:24.059Z,18.10
2019-05-20T11:01:02.485Z,19.13
2019-05-20T11:03:22.698Z,17.47
2019-05-20T11:05:51.162Z,17.37
2019-05-20T11:08:19.658Z,17.63
2019-05-20T11:10:48.226Z,17.63
2019-05-20T11:13:16.850Z,18.60
2019-05-20T11:15:45.404Z,17.53
2019-05-20T11:18:13.928Z,18.37
2019-05-20T11:20:42.447Z,19.03
2019-05-20T11:23:10.880Z,18.77
2019-05-20T11:25:39.347Z,18.97
2019-05-20T11:28:11.705Z,19.07
2019-05-20T11:30:38.095Z,21.17
2019-05-20T11:33:06.524Z,21.40
2019-05-20T11:35:36.669Z,21.27
2019-05-20T11:38:05.133Z,21.40
2019-05-20T11:40:33.847Z,21.30
2019-05-20T11:43:02.260Z,22.10
2019-05-20T11:45:30.795Z,22.60
2019-05-20T11:47:59.238Z,22.33
2019-05-20T11:50:27.674Z,25.03
2019-05-20T11:52:56.123Z,26.17
2019-05-20T11:55:24.584Z,26.53
2019-05-20T11:57:53.175Z,23.73
2019-05-20T12:00:21.876Z,27.37
2019-05-20T12:02:50.309Z,25.20
2019-05-20T12:05:19.441Z,27.93
2019-05-20T12:07:47.877Z,27.30
2019-05-20T12:10:17.618Z,24.60
2019-05-20T12:12:46.332Z,23.60
2019-05-20T12:15:16.846Z,20.80
2019-05-20T12:17:45.319Z,18.80
2019-05-20T12:20:14.325Z,19.10
2019-05-20T12:22:42.901Z,17.70
2019-05-20T12:25:11.677Z,19.60
2019-05-20T12:27:40.135Z,17.13
2019-05-20T12:30:09.561Z,16.73
2019-05-20T12:32:38.192Z,15.27
2019-05-20T12:35:08.180Z,15.23
2019-05-20T12:37:36.820Z,14.80
2019-05-20T12:40:08.294Z,12.70
2019-05-20T12:42:38.794Z,12.37
2019-05-20T12:45:09.264Z,12.20
2019-05-20T12:47:37.977Z,11.13
2019-05-20T12:50:07.103Z,10.30
2019-05-20T12:52:35.761Z,9.70
2019-05-20T12:55:09.097Z,9.87
2019-05-20T12:57:36.572Z,9.30
2019-05-20T13:00:13.553Z,9.13
2019-05-20T13:02:43.005Z,9.07
2019-05-20T13:05:13.414Z,10.00
2019-05-20T13:07:41.978Z,9.10
2019-05-20T13:10:28.253Z,9.30
2019-05-20T13:12:41.479Z,9.10
2019-05-20T13:15:11.527Z,9.10
2019-05-20T13:17:44.268Z,9.10
2019-05-20T13:20:10.815Z,9.00
2019-05-20T13:22:39.265Z,9.77
2019-05-20T13:25:08.581Z,8.50
2019-05-20T13:27:37.055Z,7.70
2019-05-20T13:30:07.569Z,8.83
2019-05-20T13:32:36.005Z,8.40
2019-05-20T13:35:06.795Z,9.23
2019-05-20T13:37:35.279Z,8.30
2019-05-20T13:40:07.896Z,8.90
2019-05-20T13:42:36.610Z,8.53
2019-05-20T13:45:06.609Z,9.33
2019-05-20T13:47:35.113Z,10.40
2019-05-20T13:50:06.499Z,10.73
2019-05-20T13:52:34.919Z,10.37
2019-05-20T13:55:05.322Z,10.23
2019-05-20T13:57:33.751Z,9.97
2019-05-20T14:00:02.248Z,10.03
2019-05-20T14:02:30.756Z,12.07
2019-05-20T14:04:59.243Z,11.23
2019-05-20T14:07:27.680Z,12.70
2019-05-20T14:09:56.153Z,12.10
2019-05-20T14:12:24.654Z,12.57
2019-05-20T14:14:53.113Z,12.17
2019-05-20T14:17:23.080Z,13.20
2019-05-20T14:19:51.532Z,13.53
2019-05-20T14:22:19.955Z,13.30
2019-05-20T14:24:48.385Z,15.13
2019-05-20T14:27:16.888Z,16.33
2019-05-20T14:29:45.340Z,15.63
2019-05-20T14:32:13.863Z,15.43
2019-05-20T14:34:42.317Z,17.07
2019-05-20T14:37:10.827Z,17.20
2019-05-20T14:39:39.315Z,16.97
2019-05-20T14:42:07.832Z,18.03
2019-05-20T14:44:36.269Z,18.83
2019-05-20T14:47:04.707Z,20.17
2019-05-20T14:49:33.232Z,19.13
2019-05-20T14:52:01.848Z,18.67
2019-05-20T14:54:30.354Z,18.30
2019-05-20T14:56:58.794Z,18.30
2019-05-20T14:59:27.400Z,19.43
2019-05-20T15:01:57.415Z,20.60
2019-05-20T15:04:25.842Z,21.20
2019-05-20T15:06:54.307Z,18.77
2019-05-20T15:09:22.800Z,20.17
2019-05-20T15:11:51.264Z,21.03
2019-05-20T15:14:19.687Z,20.77
2019-05-20T15:16:48.170Z,22.70
2019-05-20T15:19:16.700Z,24.47
2019-05-20T15:21:45.217Z,21.80
2019-05-20T15:24:13.753Z,22.00
2019-05-20T15:26:42.340Z,23.23
2019-05-20T15:29:27.063Z,23.50
2019-05-20T15:31:41.085Z,23.37
2019-05-20T15:34:09.503Z,24.80
2019-05-20T15:36:37.954Z,24.27
2019-05-20T15:39:07.193Z,25.63
2019-05-20T15:41:35.762Z,26.37
2019-05-20T15:44:04.574Z,25.63
2019-05-20T15:46:34.610Z,24.27
2019-05-20T15:49:03.061Z,24.63
2019-05-20T15:51:31.508Z,23.37
2019-05-20T15:54:00.115Z,22.80
2019-05-20T15:56:28.537Z,23.27
2019-05-20T15:58:57.054Z,22.57
2019-05-20T16:01:25.519Z,25.37
2019-05-20T16:03:53.980Z,26.27
2019-05-20T16:06:22.426Z,26.30
2019-05-20T16:08:52.492Z,25.97
2019-05-20T16:11:20.935Z,26.83
2019-05-20T16:13:49.452Z,26.60
2019-05-20T16:16:19.555Z,27.63
2019-05-20T16:18:48.073Z,25.90
2019-05-20T16:21:16.585Z,28.60
2019-05-20T16:23:45.045Z,28.23
2019-05-20T16:26:13.488Z,29.33
2019-05-20T16:28:41.959Z,26.00
2019-05-20T16:31:10.470Z,29.50
2019-05-20T16:33:39.076Z,31.83
2019-05-20T16:36:08.162Z,29.23
2019-05-20T16:38:36.726Z,29.87
2019-05-20T16:41:05.360Z,30.10
2019-05-20T16:43:33.994Z,32.60
2019-05-20T16:46:02.606Z,29.40
2019-05-20T16:48:31.025Z,31.40
2019-05-20T16:50:59.490Z,33.50
2019-05-20T16:53:27.990Z,32.07
2019-05-20T16:55:56.680Z,32.07
2019-05-20T16:58:25.109Z,33.80
2019-05-20T17:00:53.666Z,34.30
2019-05-20T17:03:22.167Z,34.67
2019-05-20T17:05:50.659Z,33.67
2019-05-20T17:08:19.188Z,32.30
2019-05-20T17:10:47.736Z,31.33
2019-05-20T17:13:16.147Z,27.70
2019-05-20T17:15:44.661Z,25.50
2019-05-20T17:18:13.166Z,22.40
2019-05-20T17:20:45.791Z,22.27
2019-05-20T17:23:11.938Z,19.50
2019-05-20T17:25:42.469Z,18.73
2019-05-20T17:28:10.907Z,17.70
2019-05-20T17:30:45.535Z,16.03
2019-05-20T17:33:09.818Z,14.90
2019-05-20T17:35:38.552Z,16.17
2019-05-20T17:38:07.178Z,14.97
2019-05-20T17:40:35.816Z,14.83
2019-05-20T17:43:04.569Z,17.20
2019-05-20T17:45:34.566Z,14.07
2019-05-20T17:48:03.186Z,15.70
2019-05-20T17:50:32.067Z,16.80
2019-05-20T17:53:00.546Z,17.40
2019-05-20T17:55:29.825Z,16.40
2019-05-20T17:57:58.712Z,15.77
2019-05-20T18:00:27.274Z,14.40
2019-05-20T18:02:55.743Z,14.03
2019-05-20T18:05:25.736Z,15.87
2019-05-20T18:07:54.251Z,16.10
2019-05-20T18:10:24.372Z,17.77
2019-05-20T18:12:53.100Z,16.73
2019-05-20T18:15:21.874Z,17.33
2019-05-20T18:17:53.023Z,17.57
2019-05-20T18:20:21.667Z,18.30
2019-05-20T18:22:50.377Z,17.90
2019-05-20T18:25:18.908Z,17.03
2019-05-20T18:27:47.399Z,16.90
2019-05-20T18:30:17.707Z,16.40
2019-05-20T18:32:46.875Z,17.13
2019-05-20T18:35:15.527Z,15.63
2019-05-20T18:37:44.224Z,18.20
2019-05-20T18:40:15.081Z,19.20
2019-05-20T18:42:43.891Z,19.40
2019-05-20T18:45:12.508Z,20.60
2019-05-20T18:47:40.950Z,21.20
2019-05-20T18:50:10.122Z,21.55
2019-05-20T18:52:38.698Z,21.23
2019-05-20T18:55:07.574Z,21.47
2019-05-20T18:57:36.100Z,21.77
2019-05-20T19:00:08.324Z,23.40
2019-05-20T19:02:36.811Z,25.30
2019-05-20T19:05:07.333Z,23.83
2019-05-20T19:07:35.841Z,23.57
2019-05-20T19:10:06.631Z,24.17
2019-05-20T19:12:35.049Z,23.50
2019-05-20T19:15:04.609Z,25.20
2019-05-20T19:17:33.077Z,25.07
2019-05-20T19:20:01.620Z,23.90
2019-05-20T19:22:30.214Z,24.47
2019-05-20T19:24:58.686Z,27.23
2019-05-20T19:27:27.148Z,26.87
2019-05-20T19:29:55.696Z,27.03
2019-05-20T19:32:24.441Z,23.20
2019-05-20T19:34:53.032Z,21.53
2019-05-20T19:37:21.460Z,23.30
2019-05-20T19:39:49.952Z,20.97
2019-05-20T19:42:18.561Z,19.67
2019-05-20T19:44:47.102Z,21.30
2019-05-20T19:47:15.619Z,20.30
2019-05-20T19:49:44.106Z,23.77
2019-05-20T19:52:12.555Z,22.43
2019-05-20T19:54:41.011Z,20.80
2019-05-20T19:57:09.477Z,21.50
2019-05-20T19:59:38.031Z,20.57
2019-05-20T20:02:16.808Z,21.57
2019-05-20T20:04:36.950Z,21.10
2019-05-20T20:07:05.559Z,19.07
2019-05-20T20:09:34.062Z,20.20
2019-05-20T20:12:02.596Z,19.30
2019-05-20T20:14:31.105Z,19.03
2019-05-20T20:16:59.574Z,20.90
2019-05-20T20:19:28.084Z,20.27
2019-05-20T20:21:56.538Z,19.73
2019-05-20T20:24:25.053Z,21.07
2019-05-20T20:26:53.604Z,20.93
2019-05-20T20:29:23.834Z,21.00
2019-05-20T20:31:52.454Z,19.13
2019-05-20T20:34:20.986Z,19.47
2019-05-20T20:36:49.431Z,17.33
2019-05-20T20:39:17.924Z,18.10
2019-05-20T20:41:46.387Z,18.60
2019-05-20T20:44:14.890Z,17.87
2019-05-20T20:46:43.419Z,17.50
2019-05-20T20:49:14.739Z,16.17
2019-05-20T20:51:42.932Z,14.33
2019-05-20T20:54:11.355Z,12.60
2019-05-20T20:56:39.864Z,11.20
2019-05-20T20:59:09.479Z,10.80
2019-05-20T21:01:38.043Z,9.57
2019-05-20T21:04:08.022Z,7.87
2019-05-20T21:06:36.523Z,6.90
2019-05-20T21:09:06.425Z,6.33
2019-05-20T21:11:34.853Z,6.60
2019-05-20T21:14:03.310Z,7.20
2019-05-20T21:16:31.726Z,8.13
2019-05-20T21:19:01.833Z,9.90
2019-05-20T21:21:31.958Z,8.43
2019-05-20T21:24:00.432Z,9.20
2019-05-20T21:26:30.414Z,9.70
2019-05-20T21:28:58.875Z,9.83
2019-05-20T21:31:27.303Z,9.50
2019-05-20T21:33:55.832Z,10.50
2019-05-20T21:36:24.276Z,9.57
2019-05-20T21:38:52.730Z,10.17
2019-05-20T21:41:21.234Z,9.87
2019-05-20T21:43:49.688Z,10.93
2019-05-20T21:46:18.123Z,11.57
2019-05-20T21:48:48.110Z,13.47
2019-05-20T21:51:16.543Z,10.80
2019-05-20T21:53:45.002Z,12.30
2019-05-20T21:56:15.152Z,13.40
2019-05-20T21:58:43.629Z,14.40
2019-05-20T22:01:12.242Z,14.53
2019-05-20T22:03:40.731Z,14.07
2019-05-20T22:06:09.145Z,14.40
2019-05-20T22:08:37.570Z,15.17
2019-05-20T22:11:06.138Z,17.10
2019-05-20T22:13:34.726Z,17.57
2019-05-20T22:16:03.416Z,17.50
2019-05-20T22:18:31.915Z,16.43
2019-05-20T22:21:00.438Z,17.33
2019-05-20T22:23:39.931Z,17.00
2019-05-20T22:26:08.382Z,15.90
2019-05-20T22:28:36.820Z,16.77
2019-05-20T22:31:05.385Z,17.80
2019-05-20T22:33:41.633Z,17.17
2019-05-20T22:36:04.067Z,17.67
2019-05-20T22:38:34.040Z,17.20
2019-05-20T22:41:02.490Z,17.80
2019-05-20T22:43:30.996Z,18.77
2019-05-20T22:45:59.444Z,17.53
2019-05-20T22:48:27.943Z,17.57
2019-05-20T22:50:56.403Z,14.97
2019-05-20T22:53:24.843Z,16.03
2019-05-20T22:55:53.289Z,16.87
2019-05-20T22:58:21.742Z,16.50
2019-05-20T23:00:50.277Z,15.80
2019-05-20T23:03:19.077Z,15.43
2019-05-20T23:05:47.505Z,14.67
2019-05-20T23:08:16.025Z,12.60
2019-05-20T23:10:44.559Z,11.90
2019-05-20T23:13:12.998Z,12.30
2019-05-20T23:15:41.510Z,11.80
2019-05-20T23:18:10.053Z,11.80
2019-05-20T23:20:38.539Z,11.90
2019-05-20T23:23:08.747Z,13.90
2019-05-20T23:25:37.165Z,13.80
2019-05-20T23:28:05.619Z,15.03
2019-05-20T23:30:34.055Z,15.33
2019-05-20T23:33:02.507Z,16.93
2019-05-20T23:35:30.934Z,17.73
2019-05-20T23:37:59.490Z,16.90
2019-05-20T23:40:27.922Z,16.80
2019-05-20T23:42:56.376Z,17.20
2019-05-20T23:45:24.822Z,16.90
2019-05-20T23:47:53.491Z,15.50
2019-05-20T23:50:21.918Z,15.90
2019-05-20T23:52:50.378Z,15.97
2019-05-20T23:55:18.932Z,16.50
2019-05-20T23:57:47.398Z,14.73
